Time;durP1;ratioP1;P1;durP2;ratioP2;P2;SDS_P1;SDS_P2;PMS_P1;PMS_P2;Temp;Humidity;BMP_temperature;BMP_pressure;BME280_temperature;BME280_humidity;BME280_pressure;Samples;Min_cycle;Max_cycle;Signal;HPM_P1;HPM_P2
2022/12/19 00:02:05;;;;;;;7.07;3.17;;;;;;;-5.96;100.00;102116.50;6128126;23;20117;-91
2022/12/19 00:04:32;;;;;;;2.53;1.45;;;;;;;-5.84;100.00;102122.38;6103405;23;20020;-91
2022/12/19 00:06:57;;;;;;;1.42;1.40;;;;;;;-5.86;100.00;102094.81;6103116;23;20039;-91
2022/12/19 00:09:23;;;;;;;2.70;2.50;;;;;;;-5.79;100.00;102091.81;6103576;23;20016;-92
2022/12/19 00:11:49;;;;;;;0.95;0.95;;;;;;;-5.70;100.00;102104.47;6078373;23;20463;-94
2022/12/19 00:14:15;;;;;;;1.10;1.10;;;;;;;-5.63;100.00;102100.66;6079881;23;20021;-93
2022/12/19 00:16:40;;;;;;;0.82;0.82;;;;;;;-5.75;100.00;102082.88;6102931;23;20013;-92
2022/12/19 00:19:06;;;;;;;0.90;0.90;;;;;;;-5.50;100.00;102113.56;6103309;23;20500;-92
2022/12/19 00:21:33;;;;;;;2.33;2.13;;;;;;;-5.33;100.00;102122.09;6125516;23;20028;-91
2022/12/19 00:23:59;;;;;;;1.90;1.42;;;;;;;-5.36;100.00;102092.91;6102420;23;20075;-93
2022/12/19 00:26:25;;;;;;;1.23;1.23;;;;;;;-5.10;100.00;102118.72;6125828;23;20009;-93
2022/12/19 00:28:53;;;;;;;2.13;1.98;;;;;;;-4.94;100.00;102120.22;6125300;23;20005;-91
2022/12/19 00:31:20;;;;;;;1.73;1.63;;;;;;;-4.83;100.00;102108.22;6103246;23;20076;-93
2022/12/19 00:33:46;;;;;;;4.13;3.08;;;;;;;-4.93;100.00;102108.28;6104016;23;20448;-91
2022/12/19 00:36:14;;;;;;;2.50;2.40;;;;;;;-5.09;100.00;102082.44;6103665;23;20037;-93
2022/12/19 00:38:40;;;;;;;3.80;1.30;;;;;;;-4.94;100.00;102106.69;6079321;23;20013;-93
2022/12/19 00:41:13;;;;;;;1.73;1.63;;;;;;;-4.86;100.00;102108.78;6101976;23;20021;-94
2022/12/19 00:43:40;;;;;;;3.22;2.85;;;;;;;-4.81;100.00;102110.66;6105099;23;20017;-93
2022/12/19 00:46:09;;;;;;;2.00;1.90;;;;;;;-4.69;100.00;102113.81;6104945;23;20093;-94
2022/12/19 00:48:35;;;;;;;3.17;2.38;;;;;;;-4.67;100.00;102106.19;6081232;23;20455;-92
2022/12/19 00:51:03;;;;;;;1.20;1.10;;;;;;;-4.77;100.00;102111.72;6105563;23;20208;-93
2022/12/19 00:53:29;;;;;;;7.13;4.32;;;;;;;-5.09;100.00;102081.66;6081090;23;20029;-93
2022/12/19 00:56:00;;;;;;;0.38;0.38;;;;;;;-4.98;100.00;102121.88;6081792;23;20018;-92
2022/12/19 00:58:26;;;;;;;2.10;2.00;;;;;;;-5.11;100.00;102121.69;6103248;23;20021;-93
2022/12/19 01:00:52;;;;;;;5.03;3.25;;;;;;;-5.17;100.00;102123.63;6104954;23;20028;-92
2022/12/19 01:03:17;;;;;;;2.63;2.40;;;;;;;-5.47;100.00;102077.84;6081488;23;20088;-92
2022/12/19 01:05:43;;;;;;;0.10;0.10;;;;;;;-5.45;100.00;102087.28;6081103;23;20017;-92
2022/12/19 01:08:08;;;;;;;2.58;2.38;;;;;;;-5.58;100.00;102079.00;6129183;23;20615;-93
2022/12/19 01:10:34;;;;;;;1.55;0.95;;;;;;;-5.49;100.00;102115.16;6080411;23;20020;-93
2022/12/19 01:13:00;;;;;;;2.45;1.63;;;;;;;-5.48;100.00;102114.09;6080787;23;20024;-94
2022/12/19 01:15:25;;;;;;;0.65;0.65;;;;;;;-5.57;100.00;102102.22;6104841;23;20010;-93
2022/12/19 01:17:51;;;;;;;0.40;0.40;;;;;;;-5.50;100.00;102114.38;6104496;23;20526;-93
2022/12/19 01:20:19;;;;;;;1.42;1.42;;;;;;;-5.68;100.00;102069.88;6081188;23;20017;-93
2022/12/19 01:22:44;;;;;;;11.25;2.70;;;;;;;-5.52;100.00;102104.91;6128773;23;20020;-92
2022/12/19 01:25:12;;;;;;;0.65;0.65;;;;;;;-5.67;100.00;102092.31;6081059;23;20013;-92
2022/12/19 01:27:38;;;;;;;1.83;1.73;;;;;;;-5.76;100.00;102070.44;6104485;23;20035;-94
2022/12/19 01:30:05;;;;;;;1.20;1.17;;;;;;;-5.59;100.00;102089.00;6080801;23;20076;-94
2022/12/19 01:32:34;;;;;;;0.73;0.57;;;;;;;-5.48;100.00;102105.97;6104835;23;20024;-93
2022/12/19 01:35:00;;;;;;;2.58;2.47;;;;;;;-5.50;100.00;102097.34;6080283;23;20001;-92
2022/12/19 01:37:25;;;;;;;1.85;1.67;;;;;;;-5.49;100.00;102093.53;6104470;23;20020;-93
2022/12/19 01:39:51;;;;;;;2.40;1.77;;;;;;;-5.46;100.00;102082.19;6104603;23;20017;-93
2022/12/19 01:42:21;;;;;;;1.48;1.40;;;;;;;-5.50;100.00;102070.31;6128604;23;20006;-93
2022/12/19 01:45:08;;;;;;;1.52;1.42;;;;;;;-5.13;100.00;102108.44;6104889;23;20024;-93
2022/12/19 01:48:00;;;;;;;3.80;2.67;;;;;;;-5.08;100.00;102108.41;6128726;23;20304;-94
2022/12/19 01:50:29;;;;;;;0.77;0.75;;;;;;;-5.30;100.00;102072.88;6080918;23;20475;-93
2022/12/19 01:52:56;;;;;;;0.10;0.10;;;;;;;-5.13;100.00;102094.91;6104740;23;20021;-94
2022/12/19 01:55:21;;;;;;;2.13;2.05;;;;;;;-5.09;100.00;102081.66;6105483;23;20041;-92
2022/12/19 01:57:49;;;;;;;2.13;2.00;;;;;;;-4.92;100.00;102106.41;6081544;23;20101;-92
2022/12/19 02:00:14;;;;;;;1.67;1.58;;;;;;;-5.02;100.00;102074.81;6080975;23;20045;-93
2022/12/19 02:02:44;;;;;;;5.57;3.88;;;;;;;-4.92;100.00;102082.84;6105527;23;20020;-94
2022/12/19 02:05:09;;;;;;;1.75;1.65;;;;;;;-4.94;100.00;102079.63;6081072;23;20112;-93
2022/12/19 02:07:36;;;;;;;0.70;0.70;;;;;;;-4.83;100.00;102080.34;6104958;23;20403;-95
2022/12/19 02:10:02;;;;;;;0.40;0.40;;;;;;;-4.77;100.00;102061.03;6104959;23;20344;-94
2022/12/19 02:12:36;;;;;;;0.73;0.73;;;;;;;-4.69;100.00;102064.25;6106299;23;20032;-94
2022/12/19 02:15:03;;;;;;;6.57;2.28;;;;;;;-4.85;100.00;102034.59;6080809;23;20025;-92
2022/12/19 02:17:40;;;;;;;3.38;1.48;;;;;;;-4.51;100.00;102060.81;6105133;23;20758;-93
2022/12/19 02:20:18;;;;;;;3.75;3.47;;;;;;;-4.41;100.00;102066.13;6105103;23;20044;-94
2022/12/19 02:23:08;;;;;;;3.13;2.88;;;;;;;-4.35;100.00;102054.94;6104275;23;20033;-92
2022/12/19 02:25:59;;;;;;;1.02;1.00;;;;;;;-4.35;100.00;102054.13;6104587;23;20021;-93
2022/12/19 02:28:34;;;;;;;6.07;3.25;;;;;;;-4.43;100.00;102036.59;6104189;23;20025;-93
2022/12/19 02:31:14;;;;;;;1.58;1.45;;;;;;;-4.36;100.00;102049.78;6104672;23;20014;-94
2022/12/19 02:33:55;;;;;;;2.72;2.60;;;;;;;-4.47;100.00;102021.22;6103881;23;20023;-94
2022/12/19 02:36:42;;;;;;;3.55;3.35;;;;;;;-4.36;100.00;102036.25;6104229;23;20017;-92
2022/12/19 02:39:13;;;;;;;2.08;1.50;;;;;;;-4.50;100.00;102016.38;6080914;23;20016;-93
2022/12/19 02:41:50;;;;;;;1.75;1.65;;;;;;;-4.33;100.00;102041.94;6104330;23;20017;-94
2022/12/19 02:44:32;;;;;;;2.35;2.22;;;;;;;-4.22;100.00;102058.84;6082598;23;20014;-93
2022/12/19 02:47:01;;;;;;;3.13;2.22;;;;;;;-4.35;100.00;102017.00;6104628;23;20017;-92
2022/12/19 02:49:29;;;;;;;0.90;0.90;;;;;;;-4.21;100.00;102038.81;6102465;23;20021;-91
2022/12/19 02:51:55;;;;;;;1.38;1.27;;;;;;;-4.19;100.00;102036.59;6101894;23;20030;-92
2022/12/19 02:54:21;;;;;;;1.55;1.40;;;;;;;-4.08;100.00;102045.44;6078758;23;20013;-92
2022/12/19 02:56:54;;;;;;;3.22;1.38;;;;;;;-3.95;100.00;102071.81;6115028;23;20090;-91
2022/12/19 02:59:49;;;;;;;1.52;1.42;;;;;;;-3.92;100.00;102074.75;6073761;23;20049;-90
2022/12/19 03:02:26;;;;;;;1.13;0.52;;;;;;;-3.91;100.00;102057.38;6122730;23;20017;-90
2022/12/19 03:05:02;;;;;;;1.63;1.52;;;;;;;-3.84;100.00;102057.81;6121826;23;20118;-90
2022/12/19 03:08:01;;;;;;;5.00;3.65;;;;;;;-3.81;100.00;102059.97;6073387;23;20096;-91
2022/12/19 03:10:32;;;;;;;0.30;0.30;;;;;;;-3.91;100.00;102048.44;6048431;23;20033;-91
2022/12/19 03:13:17;;;;;;;3.35;3.15;;;;;;;-3.80;100.00;102056.16;6121251;23;20069;-90
2022/12/19 03:15:48;;;;;;;1.10;1.08;;;;;;;-3.96;100.00;102016.00;6096842;23;20018;-91
2022/12/19 03:18:14;;;;;;;0.88;0.88;;;;;;;-3.82;100.00;102041.28;6073584;23;20053;-89
2022/12/19 03:20:47;;;;;;;7.68;2.47;;;;;;;-3.65;100.00;102054.34;6146275;23;20006;-90
2022/12/19 03:23:13;;;;;;;0.68;0.68;;;;;;;-3.97;100.00;102004.34;6097452;23;20018;-90
2022/12/19 03:25:42;;;;;;;0.98;0.95;;;;;;;-3.93;100.00;101997.25;6097522;23;20073;-91
2022/12/19 03:28:11;;;;;;;0.22;0.22;;;;;;;-3.86;100.00;102002.28;6146086;23;20036;-91
2022/12/19 03:30:39;;;;;;;0.85;0.82;;;;;;;-3.93;100.00;101991.81;6146223;23;20013;-90
2022/12/19 03:33:07;;;;;;;0.93;0.93;;;;;;;-3.63;100.00;102027.72;6072483;23;20022;-91
2022/12/19 03:35:34;;;;;;;2.08;1.92;;;;;;;-3.82;100.00;102003.31;6097095;23;20014;-91
2022/12/19 03:38:01;;;;;;;0.30;0.30;;;;;;;-3.82;100.00;101993.28;6096131;23;20014;-91
2022/12/19 03:40:28;;;;;;;2.08;1.92;;;;;;;-3.64;100.00;102029.66;6072382;23;20528;-90
2022/12/19 03:43:10;;;;;;;3.70;3.35;;;;;;;-3.77;100.00;102012.19;6096160;23;20009;-91
2022/12/19 03:45:41;;;;;;;3.40;1.50;;;;;;;-3.51;100.00;102052.50;6101209;23;20370;-94
2022/12/19 03:48:09;;;;;;;5.30;1.63;;;;;;;-3.79;100.00;102013.56;6099907;23;20029;-94
2022/12/19 03:50:47;;;;;;;1.02;1.02;;;;;;;-3.64;100.00;102021.50;6051490;23;20009;-93
2022/12/19 03:53:42;;;;;;;3.72;1.95;;;;;;;-3.41;100.00;102057.78;6075328;23;20088;-92
2022/12/19 03:56:31;;;;;;;1.27;1.23;;;;;;;-3.51;100.00;102022.66;6073826;23;20026;-94
2022/12/19 03:59:08;;;;;;;1.17;1.15;;;;;;;-3.62;100.00;102019.28;6080156;23;20056;-94
2022/12/19 04:01:35;;;;;;;1.63;1.52;;;;;;;-3.44;100.00;102037.47;6104485;23;20017;-94
2022/12/19 04:04:03;;;;;;;0.75;0.75;;;;;;;-3.36;100.00;102063.13;6103409;23;20014;-94
2022/12/19 04:06:31;;;;;;;0.80;0.80;;;;;;;-3.54;100.00;102031.38;6104171;23;20452;-94
2022/12/19 04:08:58;;;;;;;3.03;1.27;;;;;;;-3.50;100.00;102029.69;6080082;23;20001;-94
2022/12/19 04:11:25;;;;;;;2.00;1.42;;;;;;;-3.32;100.00;102058.75;6104251;23;20357;-94
2022/12/19 04:13:58;;;;;;;2.40;1.67;;;;;;;-3.33;100.00;102076.13;6104010;23;20010;-95
2022/12/19 04:16:45;;;;;;;0.95;0.95;;;;;;;-3.66;100.00;102006.59;6080843;23;20017;-94
2022/12/19 04:20:03;;;;;;;0.75;0.75;;;;;;;-3.52;100.00;102035.44;6080559;23;20010;-94
2022/12/19 04:22:41;;;;;;;1.98;1.88;;;;;;;-3.40;100.00;102052.06;6069844;23;20049;-91
2022/12/19 04:25:10;;;;;;;0.75;0.75;;;;;;;-3.50;100.00;102037.84;6128936;23;20025;-91
2022/12/19 04:27:37;;;;;;;2.20;2.03;;;;;;;-3.42;100.00;102053.44;6102352;23;20064;-90
2022/12/19 04:30:04;;;;;;;2.00;1.85;;;;;;;-3.56;100.00;102022.75;6101851;23;20068;-91
2022/12/19 04:32:32;;;;;;;0.90;0.90;;;;;;;-3.22;100.00;102061.28;6101039;23;20021;-91
2022/12/19 04:34:59;;;;;;;1.65;1.55;;;;;;;-3.34;100.00;102036.50;6100932;23;20447;-91
2022/12/19 04:37:24;;;;;;;1.05;1.05;;;;;;;-3.34;100.00;102036.50;6077673;23;20044;-92
2022/12/19 04:39:50;;;;;;;4.95;1.45;;;;;;;-3.54;100.00;102010.50;6125317;23;20076;-92
2022/12/19 04:42:16;;;;;;;4.75;2.47;;;;;;;-3.44;100.00;102020.41;6126091;23;20436;-95
2022/12/19 04:44:41;;;;;;;0.50;0.50;;;;;;;-3.36;100.00;102039.53;6104659;23;20458;-94
2022/12/19 04:47:07;;;;;;;1.92;1.60;;;;;;;-3.58;100.00;102003.22;6104367;23;20440;-93
2022/12/19 04:49:33;;;;;;;2.22;2.05;;;;;;;-3.42;100.00;102035.28;6104886;23;20352;-94
2022/12/19 04:51:58;;;;;;;2.83;2.30;;;;;;;-3.44;100.00;102025.81;6104234;23;20014;-94
2022/12/19 04:54:24;;;;;;;3.17;2.97;;;;;;;-3.36;100.00;102038.72;6079944;23;20069;-93
2022/12/19 04:56:51;;;;;;;0.55;0.55;;;;;;;-3.51;100.00;101998.22;6103521;23;20124;-93
2022/12/19 04:59:17;;;;;;;2.47;0.82;;;;;;;-3.50;100.00;101999.84;6080404;23;20024;-93
2022/12/19 05:01:43;;;;;;;2.58;1.75;;;;;;;-3.42;100.00;101996.47;6103818;23;20422;-94
2022/12/19 05:04:08;;;;;;;2.53;2.42;;;;;;;-3.54;100.00;101987.97;6103979;23;20002;-94
2022/12/19 05:06:36;;;;;;;0.52;0.52;;;;;;;-3.31;100.00;102027.75;6103271;23;20418;-94
2022/12/19 05:09:02;;;;;;;4.55;2.83;;;;;;;-3.30;100.00;102027.47;6103958;23;20092;-95
2022/12/19 05:11:33;;;;;;;1.65;1.55;;;;;;;-3.47;100.00;101982.97;6102563;23;20017;-94
2022/12/19 05:14:01;;;;;;;1.45;1.35;;;;;;;-3.48;100.00;102000.38;6103084;23;20025;-93
2022/12/19 05:16:26;;;;;;;1.63;1.52;;;;;;;-3.42;100.00;102001.91;6082349;23;20336;-94
2022/12/19 05:18:53;;;;;;;0.93;0.88;;;;;;;-3.42;100.00;102004.63;6080472;23;20017;-94
2022/12/19 05:21:20;;;;;;;1.70;1.25;;;;;;;-3.32;100.00;102023.47;6103949;23;20006;-93
2022/12/19 05:23:46;;;;;;;2.22;2.05;;;;;;;-3.33;100.00;102011.00;6078094;23;20017;-92
2022/12/19 05:26:12;;;;;;;2.47;2.28;;;;;;;-3.38;100.00;101998.31;6078289;23;20321;-90
2022/12/19 05:28:38;;;;;;;0.95;0.95;;;;;;;-3.42;100.00;101980.19;6100541;23;20002;-91
2022/12/19 05:31:10;;;;;;;2.90;2.40;;;;;;;-3.42;100.00;101988.34;6098842;23;20040;-90
2022/12/19 05:33:36;;;;;;;0.45;0.45;;;;;;;-3.44;100.00;101976.97;6125077;23;20018;-91
2022/12/19 05:36:04;;;;;;;0.35;0.35;;;;;;;-3.38;100.00;101997.50;6100940;23;20025;-91
2022/12/19 05:38:30;;;;;;;1.27;1.25;;;;;;;-3.08;100.00;102050.50;6127591;23;20005;-92
2022/12/19 05:40:59;;;;;;;0.95;0.95;;;;;;;-3.32;100.00;102007.19;6103819;23;20016;-92
2022/12/19 05:43:30;;;;;;;0.10;0.10;;;;;;;-3.16;100.00;102032.16;6079462;23;20017;-91
2022/12/19 05:45:59;;;;;;;1.42;1.33;;;;;;;-3.20;100.00;102025.72;6101900;23;20538;-91
2022/12/19 05:48:36;;;;;;;0.45;0.45;;;;;;;-3.20;100.00;102020.28;6103123;23;20009;-91
2022/12/19 05:51:03;;;;;;;2.47;2.28;;;;;;;-3.01;100.00;102043.56;6079465;23;20819;-90
2022/12/19 05:53:29;;;;;;;2.42;2.22;;;;;;;-3.20;100.00;102012.94;6102337;23;20020;-90
2022/12/19 05:56:15;;;;;;;3.15;2.75;;;;;;;-3.06;100.00;102040.13;6101629;23;20088;-91
2022/12/19 05:58:50;;;;;;;0.47;0.47;;;;;;;-3.30;100.00;102004.97;6137142;23;20010;-95
2022/12/19 06:01:25;;;;;;;1.95;1.85;;;;;;;-3.31;100.00;101997.91;6113952;23;20017;-91
2022/12/19 06:03:51;;;;;;;0.60;0.60;;;;;;;-3.32;100.00;101986.28;6103757;23;20045;-91
2022/12/19 06:06:22;;;;;;;2.15;2.05;;;;;;;-3.10;100.00;101999.19;6079016;23;20014;-92
2022/12/19 06:08:51;;;;;;;1.10;1.00;;;;;;;-3.31;100.00;101977.00;6101360;23;20333;-91
2022/12/19 06:11:17;;;;;;;0.70;0.70;;;;;;;-3.26;100.00;101995.13;6100228;23;20025;-90
2022/12/19 06:13:43;;;;;;;1.05;1.05;;;;;;;-3.17;100.00;102009.63;6125617;23;20016;-90
2022/12/19 06:16:36;;;;;;;0.90;0.90;;;;;;;-2.96;100.00;102048.91;6101238;23;20526;-94
2022/12/19 06:24:44;;;;;;;1.75;1.65;;;;;;;-3.23;100.00;101994.53;6207123;23;20052;-95
2022/12/19 06:27:44;;;;;;;1.67;1.58;;;;;;;-3.21;100.00;102003.19;6164708;23;20108;-94
2022/12/19 07:07:58;;;;;;;6.82;3.50;;;;;;;-2.96;100.00;101996.53;6186300;23;20025;-95
2022/12/19 07:10:24;;;;;;;3.08;2.85;;;;;;;-2.93;100.00;102001.34;6141131;23;20024;-95
2022/12/19 07:12:50;;;;;;;2.28;2.15;;;;;;;-2.59;100.00;102047.19;6117858;23;20075;-94
2022/12/19 07:15:16;;;;;;;2.55;2.42;;;;;;;-2.95;100.00;101996.19;6117315;23;20013;-95
2022/12/19 07:17:44;;;;;;;0.80;0.80;;;;;;;-2.68;100.00;102029.97;6123763;23;20069;-93
2022/12/19 07:20:11;;;;;;;1.67;1.02;;;;;;;-2.69;100.00;102025.63;6105559;23;20167;-94
2022/12/19 07:22:37;;;;;;;1.15;1.15;;;;;;;-2.75;100.00;102010.53;6105275;23;20024;-94
2022/12/19 07:25:03;;;;;;;2.78;2.58;;;;;;;-2.69;100.00;102031.06;6108662;23;20346;-93
2022/12/19 07:27:29;;;;;;;4.10;3.72;;;;;;;-2.53;100.00;102037.81;6108365;23;20013;-94
2022/12/19 07:29:54;;;;;;;1.65;1.52;;;;;;;-2.56;100.00;102046.59;6109166;23;20005;-93
2022/12/19 07:32:20;;;;;;;3.08;2.88;;;;;;;-2.51;100.00;102043.78;6133435;23;20393;-93
2022/12/19 07:34:55;;;;;;;1.08;1.00;;;;;;;-2.61;100.00;102027.66;6108544;23;20016;-92
2022/12/19 07:37:20;;;;;;;2.35;2.17;;;;;;;-2.47;100.00;102051.03;6158585;23;20036;-95
2022/12/19 07:39:49;;;;;;;1.85;1.75;;;;;;;-2.42;100.00;102040.03;6109912;23;20012;-93
2022/12/19 07:42:15;;;;;;;1.65;1.58;;;;;;;-2.62;100.00;102012.44;6109735;23;20150;-93
2022/12/19 07:44:40;;;;;;;7.72;2.97;;;;;;;-2.69;100.00;101990.31;6134584;23;20009;-94
2022/12/19 07:47:06;;;;;;;2.20;2.10;;;;;;;-2.67;100.00;101990.84;6134551;23;20077;-94
2022/12/19 07:49:32;;;;;;;0.88;0.88;;;;;;;-2.37;100.00;102028.28;6110082;23;20017;-93
2022/12/19 07:51:57;;;;;;;1.75;1.65;;;;;;;-2.57;100.00;102007.75;6110102;23;20495;-95
2022/12/19 07:54:23;;;;;;;4.90;2.42;;;;;;;-2.35;100.00;102039.66;6110583;23;20009;-93
2022/12/19 07:56:49;;;;;;;2.40;2.20;;;;;;;-2.52;100.00;102015.00;6109824;23;20012;-94
2022/12/19 07:59:15;;;;;;;6.05;5.63;;;;;;;-2.33;100.00;102045.59;6122326;23;20116;-94
2022/12/19 08:01:41;;;;;;;4.93;2.53;;;;;;;-2.47;100.00;102013.00;6105008;23;20018;-95
2022/12/19 08:04:07;;;;;;;5.20;4.75;;;;;;;-2.45;100.00;102015.38;6081119;23;20016;-95
2022/12/19 08:06:32;;;;;;;2.10;1.98;;;;;;;-2.13;100.00;102061.50;6129102;23;20331;-96
2022/12/19 08:08:58;;;;;;;2.75;1.77;;;;;;;-2.36;100.00;102036.13;6077574;23;20021;-94
2022/12/19 08:11:28;;;;;;;2.53;2.22;;;;;;;-2.10;100.00;102066.31;6075062;23;20077;-94
2022/12/19 08:13:54;;;;;;;1.85;1.63;;;;;;;-2.21;100.00;102026.88;6052184;23;20025;-95
2022/12/19 08:16:20;;;;;;;6.82;2.72;;;;;;;-2.29;100.00;102022.13;6075744;23;20029;-96
2022/12/19 08:18:48;;;;;;;3.05;1.85;;;;;;;-2.14;100.00;102046.28;6075834;23;20079;-94
2022/12/19 08:21:14;;;;;;;3.78;3.35;;;;;;;-2.07;100.00;102057.59;6051848;23;20014;-93
2022/12/19 08:23:40;;;;;;;3.25;3.03;;;;;;;-2.17;100.00;102048.81;6052450;23;20020;-95
2022/12/19 08:26:09;;;;;;;2.20;2.10;;;;;;;-2.28;100.00;102034.63;6099559;23;20057;-95
2022/12/19 08:28:35;;;;;;;5.18;2.65;;;;;;;-2.21;100.00;102039.66;6052050;23;20096;-94
2022/12/19 08:31:10;;;;;;;1.85;1.27;;;;;;;-2.30;100.00;102028.66;6075602;23;20024;-95
2022/12/19 08:33:35;;;;;;;3.05;2.78;;;;;;;-2.19;100.00;102045.59;6052491;23;20053;-94
2022/12/19 08:36:09;;;;;;;3.70;2.28;;;;;;;-2.07;100.00;102071.19;6076238;23;20077;-93
2022/12/19 08:38:35;;;;;;;0.98;0.98;;;;;;;-2.09;100.00;102076.09;6052247;23;20097;-95
2022/12/19 08:41:01;;;;;;;3.13;2.05;;;;;;;-2.13;100.00;102066.94;6051766;23;20006;-94
2022/12/19 08:43:27;;;;;;;3.50;2.88;;;;;;;-2.04;100.00;102059.69;6076882;23;20037;-94
2022/12/19 08:45:53;;;;;;;1.13;1.02;;;;;;;-1.98;100.00;102058.47;6100077;23;20013;-94
2022/12/19 08:48:19;;;;;;;5.25;4.38;;;;;;;-2.19;100.00;102040.16;6054317;23;20022;-96
2022/12/19 08:50:57;;;;;;;0.77;0.77;;;;;;;-2.19;100.00;102035.53;6078664;23;20041;-96
2022/12/19 08:53:24;;;;;;;3.72;2.28;;;;;;;-1.91;100.00;102068.94;6056857;23;20025;-93
2022/12/19 08:55:57;;;;;;;0.55;0.55;;;;;;;-1.86;100.00;102081.66;6077924;23;20013;-93
2022/12/19 08:58:24;;;;;;;19.48;4.15;;;;;;;-1.89;100.00;102077.59;6052697;23;20061;-94
2022/12/19 09:00:51;;;;;;;2.70;2.03;;;;;;;-1.93;100.00;102066.53;6100616;23;20427;-94
2022/12/19 09:03:17;;;;;;;5.25;2.10;;;;;;;-1.94;100.00;102059.47;6100983;23;20021;-94
2022/12/19 09:05:42;;;;;;;1.23;1.17;;;;;;;-1.88;100.00;102058.28;6076711;23;20021;-95
2022/12/19 09:08:08;;;;;;;1.80;1.70;;;;;;;-1.89;100.00;102059.38;6100568;23;20426;-94
2022/12/19 09:10:37;;;;;;;1.33;1.23;;;;;;;-1.69;100.00;102081.81;6076601;23;20346;-93
2022/12/19 09:13:11;;;;;;;6.05;4.25;;;;;;;-1.78;100.00;102059.97;6050339;23;20014;-94
2022/12/19 09:47:57;;;;;;;1.10;1.08;;;;;;;-1.50;100.00;102012.53;6159191;23;20473;-92
2022/12/19 09:51:03;;;;;;;2.78;2.58;;;;;;;-1.33;100.00;102041.78;6108948;23;20084;-93
2022/12/19 09:53:35;;;;;;;0.98;0.90;;;;;;;-1.35;100.00;102027.69;5991985;23;20023;-93
2022/12/19 09:56:01;;;;;;;1.92;1.23;;;;;;;-1.65;100.00;101987.56;6014902;23;20159;-92
2022/12/19 09:58:40;;;;;;;1.27;1.27;;;;;;;-1.37;100.00;102029.91;6050579;23;20005;-94
2022/12/19 10:04:04;;;;;;;2.35;2.25;;;;;;;-1.35;100.00;102019.53;6065354;23;20082;-89
2022/12/19 10:06:30;;;;;;;4.00;2.75;;;;;;;-1.41;100.00;102007.94;6061602;23;20019;-88
2022/12/19 10:08:56;;;;;;;1.27;1.17;;;;;;;-1.30;100.00;102008.53;6041400;23;20030;-89
2022/12/19 10:11:29;;;;;;;3.97;3.58;;;;;;;-1.23;100.00;102025.22;6017688;23;20061;-89
2022/12/19 10:14:32;;;;;;;3.85;3.50;;;;;;;-1.12;100.00;102021.13;6017302;23;20075;-89
2022/12/19 10:17:10;;;;;;;6.07;0.98;;;;;;;-1.02;100.00;102022.81;6088492;23;20102;-89
2022/12/19 10:19:40;;;;;;;1.23;1.23;;;;;;;-0.97;100.00;102007.13;6041195;23;20022;-89
2022/12/19 10:22:16;;;;;;;2.80;1.88;;;;;;;-1.05;100.00;101991.53;6016673;23;20019;-88
2022/12/19 10:24:59;;;;;;;4.20;2.53;;;;;;;-0.88;100.00;102003.63;6064769;23;20022;-89
2022/12/19 10:27:55;;;;;;;2.03;1.93;;;;;;;-0.74;100.00;102001.66;6017154;23;20074;-88
2022/12/19 10:30:21;;;;;;;1.40;1.30;;;;;;;-0.83;100.00;101984.44;6040769;23;20102;-89
2022/12/19 10:32:53;;;;;;;0.45;0.45;;;;;;;-0.67;100.00;101993.81;6040592;23;20577;-89
2022/12/19 10:35:22;;;;;;;1.42;1.33;;;;;;;-0.68;100.00;101986.75;6090592;23;20071;-90
2022/12/19 10:38:21;;;;;;;2.42;1.20;;;;;;;-0.78;100.00;101959.78;6045903;23;20333;-89
2022/12/19 10:41:15;;;;;;;1.98;1.88;;;;;;;-0.52;100.00;101971.59;6041664;23;20102;-89
2022/12/19 10:43:49;;;;;;;1.10;1.00;;;;;;;-0.52;100.00;101971.59;6088465;23;20019;-87
2022/12/19 10:46:45;;;;;;;1.55;1.45;;;;;;;-0.58;100.00;101962.75;6040587;23;20026;-88
2022/12/19 10:49:17;;;;;;;2.20;2.10;;;;;;;-0.59;100.00;101946.72;5990860;23;20023;-88
2022/12/19 10:52:00;;;;;;;4.18;2.47;;;;;;;-0.51;100.00;101965.03;6040712;23;20034;-89
2022/12/19 10:54:42;;;;;;;0.20;0.20;;;;;;;-0.38;100.00;101966.03;6016066;23;20026;-88
2022/12/19 10:57:25;;;;;;;3.17;2.88;;;;;;;-0.49;100.00;101954.63;6042375;23;20054;-88
2022/12/19 10:59:59;;;;;;;3.03;2.72;;;;;;;-0.34;100.00;101954.19;6016920;23;20029;-89
2022/12/19 11:02:37;;;;;;;1.25;1.20;;;;;;;-0.33;100.00;101949.53;6072063;23;20089;-89
2022/12/19 11:05:28;;;;;;;1.48;1.38;;;;;;;-0.47;100.00;101928.63;6099190;23;20018;-89
2022/12/19 11:08:15;;;;;;;2.70;1.90;;;;;;;-0.28;100.00;101936.53;6097701;23;20452;-89
2022/12/19 11:10:43;;;;;;;2.33;2.20;;;;;;;-0.36;100.00;101912.78;6099716;23;20073;-87
2022/12/19 11:13:21;;;;;;;0.63;0.63;;;;;;;-0.08;100.00;101952.28;6097681;23;20049;-89
2022/12/19 11:15:57;;;;;;;2.45;2.25;;;;;;;0.02;100.00;101934.81;6077552;23;20056;-95
2022/12/19 11:18:32;;;;;;;2.28;2.08;;;;;;;0.05;100.00;101933.38;6102140;23;20041;-89
2022/12/19 11:21:29;;;;;;;1.27;1.20;;;;;;;-0.09;100.00;101901.59;6099424;23;20440;-88
2022/12/19 11:24:03;;;;;;;2.20;2.00;;;;;;;-0.15;100.00;101919.22;6050935;23;20073;-87
2022/12/19 11:26:42;;;;;;;3.38;3.00;;;;;;;0.04;100.00;101931.78;6125563;23;20037;-90
2022/12/19 11:29:24;;;;;;;3.10;2.90;;;;;;;-0.01;100.00;101930.81;6074565;23;20025;-87
2022/12/19 11:31:59;;;;;;;0.90;0.90;;;;;;;-0.08;100.00;101919.56;6123837;23;20046;-87
2022/12/19 11:34:28;;;;;;;8.75;3.97;;;;;;;-0.21;100.00;101917.78;6100040;23;20017;-93
2022/12/19 11:37:20;;;;;;;0.47;0.47;;;;;;;-0.23;100.00;101922.75;6101906;23;20033;-88
2022/12/19 11:39:52;;;;;;;2.10;1.08;;;;;;;-0.23;100.00;101925.47;6075126;23;20459;-89
2022/12/19 11:42:28;;;;;;;3.03;2.75;;;;;;;-0.31;100.00;101909.91;6097823;23;20014;-88
2022/12/19 11:45:15;;;;;;;1.38;1.27;;;;;;;-0.10;100.00;101919.09;6073796;23;20022;-88
2022/12/19 11:47:57;;;;;;;1.35;1.33;;;;;;;-0.11;100.00;101931.09;6097312;23;20152;-88
2022/12/19 11:50:38;;;;;;;6.03;1.27;;;;;;;-0.09;100.00;101923.44;6097623;23;20105;-89
2022/12/19 11:53:11;;;;;;;2.60;2.40;;;;;;;-0.26;100.00;101906.22;6073783;23;20345;-94
2022/12/19 11:55:52;;;;;;;2.10;2.00;;;;;;;-0.10;100.00;101908.19;6074079;23;20022;-89
2022/12/19 11:58:17;;;;;;;1.48;1.38;;;;;;;-0.01;100.00;101911.72;6072765;23;20056;-88
2022/12/19 12:00:53;;;;;;;2.80;1.98;;;;;;;-0.09;100.00;101896.16;6049685;23;20381;-88
2022/12/19 12:03:46;;;;;;;0.80;0.80;;;;;;;0.00;100.00;101926.94;6097388;23;20104;-88
2022/12/19 12:06:15;;;;;;;3.85;3.58;;;;;;;-0.04;100.00;101925.97;6073536;23;20037;-88
2022/12/19 12:09:00;;;;;;;2.92;1.98;;;;;;;-0.01;100.00;101936.28;6097573;23;20033;-88
2022/12/19 12:11:47;;;;;;;2.25;2.15;;;;;;;0.02;100.00;101923.09;6070737;23;20033;-89
2022/12/19 12:14:19;;;;;;;3.97;2.67;;;;;;;-0.04;100.00;101920.53;6073554;23;20025;-87
2022/12/19 12:17:11;;;;;;;4.38;1.95;;;;;;;-0.09;100.00;101909.78;6049763;23;20101;-89
2022/12/19 12:19:48;;;;;;;1.60;1.50;;;;;;;-0.03;100.00;101915.88;6073452;23;20028;-89
2022/12/19 12:22:50;;;;;;;1.77;1.65;;;;;;;0.05;100.00;101906.88;6073398;23;20486;-89
2022/12/19 12:25:31;;;;;;;3.70;2.80;;;;;;;-0.01;100.00;101914.44;6074902;23;20503;-88
2022/12/19 12:28:17;;;;;;;1.83;1.73;;;;;;;0.04;100.00;101899.03;6096919;23;20021;-88
2022/12/19 12:30:56;;;;;;;16.35;3.38;;;;;;;0.06;100.00;101891.31;6099657;23;20038;-88
2022/12/19 12:34:15;;;;;;;2.90;2.65;;;;;;;0.05;100.00;101886.97;6123821;23;20084;-88
2022/12/19 12:37:08;;;;;;;2.22;1.75;;;;;;;0.13;100.00;101888.91;6028325;23;20022;-88
2022/12/19 12:39:52;;;;;;;4.20;2.28;;;;;;;0.10;100.00;101893.09;6074921;23;20018;-88
2022/12/19 12:42:27;;;;;;;;;;;;;;;0.11;100.00;101885.72;6073311;23;20509;-90
2022/12/19 12:44:54;;;;;;;1.35;1.10;;;;;;;0.04;100.00;101877.22;6097682;23;20104;-89
2022/12/19 12:47:26;;;;;;;2.75;2.08;;;;;;;-0.01;100.00;101870.78;6048459;23;20022;-88
2022/12/19 12:50:01;;;;;;;3.38;3.10;;;;;;;0.07;100.00;101865.66;6095718;23;20018;-89
2022/12/19 12:52:36;;;;;;;6.28;2.47;;;;;;;-0.17;100.00;101828.75;6074574;23;20022;-89
2022/12/19 12:55:04;;;;;;;3.22;1.95;;;;;;;0.05;100.00;101862.44;6049216;23;20097;-89
2022/12/19 12:57:35;;;;;;;4.35;4.03;;;;;;;-0.05;100.00;101858.91;6096370;23;20325;-89
2022/12/19 13:00:19;;;;;;;3.60;3.33;;;;;;;-0.04;100.00;101841.41;6096218;23;20100;-89